Time;durP1;ratioP1;P1;durP2;ratioP2;P2;SDS_P1;SDS_P2;PMS_P1;PMS_P2;Temp;Humidity;BMP_temperature;BMP_pressure;BME280_temperature;BME280_humidity;BME280_pressure;Samples;Min_cycle;Max_cycle;Signal;HPM_P1;HPM_P2
2022/03/19 00:01:03;;;;;;;;;;;8.40;54.40;;;;;;5050175;28;19916;-86
2022/03/19 00:03:29;;;;;;;;;;;8.40;54.20;;;;;;5055880;28;19919;-86
2022/03/19 00:05:55;;;;;;;;;;;8.30;54.00;;;;;;5054734;28;20062;-86
2022/03/19 00:08:20;;;;;;;;;;;8.10;54.70;;;;;;5056367;28;19916;-86
2022/03/19 00:10:46;;;;;;;;;;;8.00;55.20;;;;;;5056376;28;19916;-86
2022/03/19 00:13:12;;;;;;;;;;;7.80;55.80;;;;;;5052193;28;19913;-86
2022/03/19 00:15:38;;;;;;;;;;;7.60;56.20;;;;;;5053738;28;19913;-86
2022/03/19 00:18:04;;;;;;;;;;;7.50;56.70;;;;;;5055572;28;19913;-86
2022/03/19 00:20:30;;;;;;;;;;;7.40;56.90;;;;;;5036427;28;19963;-86
2022/03/19 00:22:55;;;;;;;;;;;7.30;57.00;;;;;;5037743;28;19909;-86
2022/03/19 00:25:21;;;;;;;;;;;7.20;57.90;;;;;;5052166;28;19924;-87
2022/03/19 00:27:46;;;;;;;;;;;7.20;59.10;;;;;;5024835;28;19967;-86
2022/03/19 00:30:12;;;;;;;;;;;7.20;58.30;;;;;;5041546;28;19913;-86
2022/03/19 00:32:38;;;;;;;;;;;7.10;58.40;;;;;;5049921;28;19939;-86
2022/03/19 00:35:04;;;;;;;;;;;7.00;58.80;;;;;;5051983;28;19977;-86
2022/03/19 00:37:30;;;;;;;;;;;7.00;58.20;;;;;;5056190;28;19909;-87
2022/03/19 00:39:55;;;;;;;;;;;7.00;58.10;;;;;;5050736;28;19956;-87
2022/03/19 00:42:21;;;;;;;;;;;7.10;58.00;;;;;;5035739;28;19964;-87
2022/03/19 00:44:47;;;;;;;;;;;7.10;58.20;;;;;;5049074;28;20007;-86
2022/03/19 00:47:13;;;;;;;;;;;6.90;58.00;;;;;;5054623;28;19909;-87
2022/03/19 00:49:38;;;;;;;;;;;6.80;58.40;;;;;;5050023;28;19995;-86
2022/03/19 00:52:04;;;;;;;;;;;6.80;58.80;;;;;;5055468;28;19916;-87
2022/03/19 00:54:30;;;;;;;;;;;6.70;59.30;;;;;;5055130;28;20060;-87
2022/03/19 00:56:55;;;;;;;;;;;6.70;59.40;;;;;;5055577;28;19964;-86
2022/03/19 00:59:21;;;;;;;;;;;6.80;58.70;;;;;;5037019;28;19920;-87
2022/03/19 01:01:47;;;;;;;;;;;6.80;58.50;;;;;;5035586;28;19916;-87
2022/03/19 01:04:12;;;;;;;;;;;6.80;58.80;;;;;;5042688;28;20408;-87
2022/03/19 01:06:38;;;;;;;;;;;6.80;58.90;;;;;;5035553;28;19913;-88
2022/03/19 01:09:03;;;;;;;;;;;6.70;59.00;;;;;;5040952;28;19916;-87
2022/03/19 01:11:29;;;;;;;;;;;6.70;59.00;;;;;;5055323;28;19912;-87
2022/03/19 01:13:55;;;;;;;;;;;6.70;59.80;;;;;;5054560;28;19919;-87
2022/03/19 01:16:21;;;;;;;;;;;6.50;60.30;;;;;;5055478;28;19908;-87
2022/03/19 01:18:48;;;;;;;;;;;6.40;60.70;;;;;;5044919;28;20016;-87
2022/03/19 01:21:14;;;;;;;;;;;6.40;60.90;;;;;;5035206;28;20352;-88
2022/03/19 01:23:40;;;;;;;;;;;6.30;61.10;;;;;;5045610;28;19912;-87
2022/03/19 01:26:06;;;;;;;;;;;6.20;61.10;;;;;;5054938;28;19913;-87
2022/03/19 01:28:31;;;;;;;;;;;6.20;61.60;;;;;;5053237;28;19913;-88
2022/03/19 01:30:57;;;;;;;;;;;6.10;62.10;;;;;;5049237;28;19921;-87
2022/03/19 01:33:23;;;;;;;;;;;6.00;62.40;;;;;;5052615;28;20187;-87
2022/03/19 01:35:48;;;;;;;;;;;5.90;62.90;;;;;;5054848;28;19916;-88
2022/03/19 01:38:14;;;;;;;;;;;5.80;63.40;;;;;;5052492;28;19921;-88
2022/03/19 01:40:39;;;;;;;;;;;5.70;64.30;;;;;;5034644;28;20293;-88
2022/03/19 01:43:05;;;;;;;;;;;5.60;65.30;;;;;;5035753;28;19913;-87
2022/03/19 01:45:30;;;;;;;;;;;5.60;65.30;;;;;;5034728;28;19913;-88
2022/03/19 01:47:56;;;;;;;;;;;5.70;64.70;;;;;;5034710;28;20317;-87
2022/03/19 01:50:23;;;;;;;;;;;5.40;64.70;;;;;;5053878;28;19956;-88
2022/03/19 01:52:48;;;;;;;;;;;5.30;64.60;;;;;;5052806;28;19934;-87
2022/03/19 01:55:15;;;;;;;;;;;5.30;65.20;;;;;;5054466;28;20446;-87
2022/03/19 01:57:42;;;;;;;;;;;5.40;65.70;;;;;;5054368;28;19912;-88
2022/03/19 02:00:09;;;;;;;;;;;5.40;64.90;;;;;;5053687;28;19913;-87
2022/03/19 02:02:35;;;;;;;;;;;5.40;64.70;;;;;;5054110;28;19909;-88
2022/03/19 02:05:03;;;;;;;;;;;5.40;64.90;;;;;;5052087;28;19959;-87
2022/03/19 02:07:29;;;;;;;;;;;5.40;65.50;;;;;;5054247;28;19908;-88
2022/03/19 02:09:58;;;;;;;;;;;5.40;66.00;;;;;;5052330;28;19945;-87
2022/03/19 02:12:24;;;;;;;;;;;5.40;66.20;;;;;;5054127;28;20018;-88
2022/03/19 02:14:50;;;;;;;;;;;5.40;66.60;;;;;;5041261;28;19947;-88
2022/03/19 02:17:15;;;;;;;;;;;5.50;66.70;;;;;;5034145;28;19909;-88
2022/03/19 02:19:51;;;;;;;;;;;5.50;66.60;;;;;;5037236;28;19913;-87
2022/03/19 02:22:17;;;;;;;;;;;5.50;66.50;;;;;;5053247;28;19916;-87
2022/03/19 02:27:27;;;;;;;;;;;5.40;66.40;;;;;;5053876;28;19984;-87
2022/03/19 02:29:52;;;;;;;;;;;5.40;66.60;;;;;;5053075;28;19975;-86
2022/03/19 02:32:18;;;;;;;;;;;5.40;66.80;;;;;;5049364;28;20319;-87
2022/03/19 02:34:44;;;;;;;;;;;5.40;66.90;;;;;;5033821;28;20286;-87
2022/03/19 02:37:09;;;;;;;;;;;5.40;66.80;;;;;;5033788;28;19991;-87
2022/03/19 02:39:35;;;;;;;;;;;5.40;67.00;;;;;;5043377;28;19913;-87
2022/03/19 02:42:03;;;;;;;;;;;5.40;67.30;;;;;;5053463;28;19956;-88
2022/03/19 02:44:29;;;;;;;;;;;5.40;67.50;;;;;;5053724;28;19931;-88
2022/03/19 02:46:56;;;;;;;;;;;5.30;67.80;;;;;;5053517;28;20274;-88
2022/03/19 02:49:22;;;;;;;;;;;5.30;68.00;;;;;;5042249;28;20067;-87
2022/03/19 02:51:48;;;;;;;;;;;5.30;68.30;;;;;;5017207;28;20394;-88
2022/03/19 02:54:15;;;;;;;;;;;5.20;68.20;;;;;;5049499;28;19917;-87
2022/03/19 02:56:41;;;;;;;;;;;5.20;68.20;;;;;;5033721;28;19909;-88
2022/03/19 02:59:08;;;;;;;;;;;5.00;68.00;;;;;;5034465;28;20080;-88
2022/03/19 03:01:34;;;;;;;;;;;4.70;68.50;;;;;;5034435;28;19917;-88
2022/03/19 03:04:00;;;;;;;;;;;4.50;69.10;;;;;;5034407;28;20309;-87
2022/03/19 03:06:25;;;;;;;;;;;4.50;69.20;;;;;;5033489;28;19917;-87
2022/03/19 03:08:51;;;;;;;;;;;4.40;69.60;;;;;;5036213;28;20353;-88
2022/03/19 03:11:17;;;;;;;;;;;4.40;69.90;;;;;;5053135;28;19913;-87
2022/03/19 03:13:43;;;;;;;;;;;4.40;70.30;;;;;;5053153;28;19992;-88
2022/03/19 03:16:08;;;;;;;;;;;4.50;70.10;;;;;;5051810;28;19952;-87
2022/03/19 03:18:34;;;;;;;;;;;4.50;69.90;;;;;;5034301;28;19960;-87
2022/03/19 03:21:00;;;;;;;;;;;4.60;70.00;;;;;;5053092;28;19909;-87
2022/03/19 03:23:26;;;;;;;;;;;4.70;69.90;;;;;;5052872;28;20373;-87
2022/03/19 03:25:52;;;;;;;;;;;4.70;70.00;;;;;;5053199;28;19936;-88
2022/03/19 03:28:17;;;;;;;;;;;4.80;70.40;;;;;;5049283;28;20378;-87
2022/03/19 03:30:43;;;;;;;;;;;4.80;69.20;;;;;;5032957;28;19909;-88
2022/03/19 03:33:08;;;;;;;;;;;4.60;69.20;;;;;;5034086;28;19909;-88
2022/03/19 03:35:34;;;;;;;;;;;4.50;69.40;;;;;;5033244;28;19975;-88
2022/03/19 03:38:00;;;;;;;;;;;4.50;69.40;;;;;;5034232;28;20426;-88
2022/03/19 03:40:25;;;;;;;;;;;4.50;69.60;;;;;;5052648;28;19932;-88
2022/03/19 03:42:51;;;;;;;;;;;4.60;70.10;;;;;;5052844;28;19909;-88
2022/03/19 03:45:17;;;;;;;;;;;4.60;70.00;;;;;;5052336;28;19927;-87
2022/03/19 03:47:42;;;;;;;;;;;4.60;69.90;;;;;;5052801;28;19959;-87
2022/03/19 03:50:09;;;;;;;;;;;4.50;69.70;;;;;;5052086;28;20038;-87
2022/03/19 03:52:35;;;;;;;;;;;4.40;69.90;;;;;;5052755;28;20283;-87
2022/03/19 03:55:03;;;;;;;;;;;4.20;70.60;;;;;;5051027;28;20436;-88
2022/03/19 03:57:29;;;;;;;;;;;4.20;71.50;;;;;;5052703;28;19915;-87
2022/03/19 03:59:54;;;;;;;;;;;4.20;71.80;;;;;;5036114;28;19996;-88
2022/03/19 04:02:20;;;;;;;;;;;4.30;72.10;;;;;;5032807;28;19917;-87
2022/03/19 04:04:45;;;;;;;;;;;4.40;71.90;;;;;;5044434;28;20382;-88
2022/03/19 04:07:11;;;;;;;;;;;4.40;71.70;;;;;;5052642;28;19909;-87
2022/03/19 04:09:36;;;;;;;;;;;4.40;71.40;;;;;;5038613;28;19913;-88
2022/03/19 04:12:03;;;;;;;;;;;4.40;71.50;;;;;;5032968;28;19909;-87
2022/03/19 04:14:29;;;;;;;;;;;4.40;71.40;;;;;;5048199;28;20465;-87
2022/03/19 04:16:54;;;;;;;;;;;4.20;71.30;;;;;;5052513;28;19913;-87
2022/03/19 04:19:20;;;;;;;;;;;4.10;71.80;;;;;;5051823;28;19936;-87
2022/03/19 04:21:45;;;;;;;;;;;3.90;72.40;;;;;;5052478;28;19909;-87
2022/03/19 04:24:11;;;;;;;;;;;3.90;73.60;;;;;;5052488;28;20363;-87
2022/03/19 04:26:37;;;;;;;;;;;3.70;74.40;;;;;;5053398;28;20430;-87
2022/03/19 04:29:02;;;;;;;;;;;3.60;75.80;;;;;;5054402;28;20333;-87
2022/03/19 04:31:28;;;;;;;;;;;3.60;75.90;;;;;;5049955;28;19913;-88
2022/03/19 04:33:53;;;;;;;;;;;3.60;75.80;;;;;;5037180;28;20279;-88
2022/03/19 04:36:32;;;;;;;;;;;3.70;76.20;;;;;;5036081;28;20481;-88
2022/03/19 04:39:02;;;;;;;;;;;3.70;75.70;;;;;;5039186;28;19912;-87
2022/03/19 04:41:28;;;;;;;;;;;3.60;75.40;;;;;;5055740;28;19920;-87
2022/03/19 04:43:54;;;;;;;;;;;3.50;75.40;;;;;;5055388;28;19970;-87
2022/03/19 04:46:20;;;;;;;;;;;3.50;75.40;;;;;;5056017;28;19959;-87
2022/03/19 04:48:46;;;;;;;;;;;3.50;75.40;;;;;;5054923;28;19908;-87
2022/03/19 04:51:16;;;;;;;;;;;3.50;75.20;;;;;;5055751;28;19913;-87
2022/03/19 04:53:42;;;;;;;;;;;3.50;75.20;;;;;;5055141;28;19916;-87
2022/03/19 04:56:08;;;;;;;;;;;3.60;75.30;;;;;;5054585;28;19917;-87
2022/03/19 04:58:34;;;;;;;;;;;3.70;74.60;;;;;;5055267;28;19958;-87
2022/03/19 05:01:00;;;;;;;;;;;3.70;74.60;;;;;;5035934;28;19916;-87
2022/03/19 05:03:26;;;;;;;;;;;3.70;74.70;;;;;;5035610;28;19970;-87
2022/03/19 05:05:51;;;;;;;;;;;3.50;75.00;;;;;;5036504;28;19943;-87
2022/03/19 05:08:17;;;;;;;;;;;3.50;75.10;;;;;;5035391;28;19920;-87
2022/03/19 05:13:27;;;;;;;;;;;3.30;75.00;;;;;;5050715;28;19958;-88
2022/03/19 05:15:53;;;;;;;;;;;3.10;74.90;;;;;;5055224;28;19913;-88
2022/03/19 05:18:19;;;;;;;;;;;3.00;75.70;;;;;;5054522;28;19913;-87
2022/03/19 05:20:44;;;;;;;;;;;2.80;76.70;;;;;;5055163;28;19920;-87
2022/03/19 05:23:10;;;;;;;;;;;2.80;76.80;;;;;;5055088;28;19909;-86
2022/03/19 05:25:36;;;;;;;;;;;2.70;77.20;;;;;;5055256;28;19913;-87
2022/03/19 05:28:02;;;;;;;;;;;2.60;77.60;;;;;;5053278;28;20298;-87
2022/03/19 05:30:28;;;;;;;;;;;2.70;77.70;;;;;;5054811;28;20267;-87
2022/03/19 05:32:54;;;;;;;;;;;2.80;77.60;;;;;;5054924;28;19920;-87
2022/03/19 05:35:20;;;;;;;;;;;2.80;77.40;;;;;;5052797;28;19913;-87
2022/03/19 05:37:47;;;;;;;;;;;2.70;77.60;;;;;;5053895;28;19915;-87
2022/03/19 05:40:12;;;;;;;;;;;2.50;78.70;;;;;;5034778;28;19909;-86
2022/03/19 05:42:38;;;;;;;;;;;2.40;79.80;;;;;;5042933;28;20592;-87
2022/03/19 05:45:04;;;;;;;;;;;2.40;80.30;;;;;;5054625;28;19966;-87
2022/03/19 05:47:30;;;;;;;;;;;2.30;80.20;;;;;;5054699;28;19952;-87
2022/03/19 05:49:55;;;;;;;;;;;2.40;80.00;;;;;;5053872;28;19912;-87
2022/03/19 05:52:21;;;;;;;;;;;2.50;79.80;;;;;;5036686;28;19909;-87
2022/03/19 05:54:46;;;;;;;;;;;2.60;79.10;;;;;;5048760;28;20362;-87
2022/03/19 05:57:12;;;;;;;;;;;2.70;78.50;;;;;;5034581;28;19916;-87
2022/03/19 05:59:37;;;;;;;;;;;2.70;78.40;;;;;;5034545;28;20350;-86
2022/03/19 06:02:05;;;;;;;;;;;2.70;78.70;;;;;;5034494;28;19910;-87
2022/03/19 06:04:31;;;;;;;;;;;2.70;79.10;;;;;;5038058;28;19921;-87
2022/03/19 06:06:57;;;;;;;;;;;2.60;79.50;;;;;;5054253;28;20252;-87
2022/03/19 06:09:22;;;;;;;;;;;2.50;80.20;;;;;;5054175;28;19916;-86
2022/03/19 06:11:48;;;;;;;;;;;2.50;80.50;;;;;;5053992;28;19916;-87
2022/03/19 06:14:13;;;;;;;;;;;2.50;80.40;;;;;;5053371;28;19913;-86
2022/03/19 06:16:39;;;;;;;;;;;2.70;80.00;;;;;;5053997;28;19963;-86
2022/03/19 06:19:04;;;;;;;;;;;2.80;79.70;;;;;;5052161;28;19924;-87
2022/03/19 06:21:30;;;;;;;;;;;2.80;79.20;;;;;;5053957;28;19916;-87
2022/03/19 06:23:55;;;;;;;;;;;2.90;79.10;;;;;;5047070;28;19913;-86
2022/03/19 06:26:23;;;;;;;;;;;3.00;79.50;;;;;;5034189;28;19913;-86
2022/03/19 06:28:49;;;;;;;;;;;3.00;80.10;;;;;;5033660;28;19909;-86
2022/03/19 06:31:14;;;;;;;;;;;3.00;80.00;;;;;;5033664;28;19949;-86
2022/03/19 06:33:41;;;;;;;;;;;3.00;80.10;;;;;;5034628;28;19955;-87
